sensor_id;sensor_type;location;lat;lon;timestamp;temperature;humidity
9949;DHT22;5013;51.840;8.276;2022-08-01T00:00:11;20.10;99.90
9949;DHT22;5013;51.840;8.276;2022-08-01T00:02:39;20.00;99.90
9949;DHT22;5013;51.840;8.276;2022-08-01T00:05:12;20.00;99.90
9949;DHT22;5013;51.840;8.276;2022-08-01T00:07:39;20.00;99.90
9949;DHT22;5013;51.840;8.276;2022-08-01T00:10:39;20.00;99.90
9949;DHT22;5013;51.840;8.276;2022-08-01T00:13:32;20.10;99.90
9949;DHT22;5013;51.840;8.276;2022-08-01T00:16:09;20.00;99.90
9949;DHT22;5013;51.840;8.276;2022-08-01T00:18:52;20.00;99.90
9949;DHT22;5013;51.840;8.276;2022-08-01T00:21:19;20.00;99.90
9949;DHT22;5013;51.840;8.276;2022-08-01T00:23:45;20.00;99.90
9949;DHT22;5013;51.840;8.276;2022-08-01T00:26:12;20.00;99.90
9949;DHT22;5013;51.840;8.276;2022-08-01T00:28:38;20.00;99.90
9949;DHT22;5013;51.840;8.276;2022-08-01T00:31:07;20.00;99.90
9949;DHT22;5013;51.840;8.276;2022-08-01T00:33:33;20.00;99.90
9949;DHT22;5013;51.840;8.276;2022-08-01T00:36:00;19.90;99.90
9949;DHT22;5013;51.840;8.276;2022-08-01T00:38:26;19.90;99.90
9949;DHT22;5013;51.840;8.276;2022-08-01T00:40:52;19.90;99.90
9949;DHT22;5013;51.840;8.276;2022-08-01T00:43:17;19.90;99.90
9949;DHT22;5013;51.840;8.276;2022-08-01T00:45:43;19.90;99.90
9949;DHT22;5013;51.840;8.276;2022-08-01T00:48:09;19.80;99.90
9949;DHT22;5013;51.840;8.276;2022-08-01T00:50:34;19.80;99.90
9949;DHT22;5013;51.840;8.276;2022-08-01T00:53:01;19.80;99.90
9949;DHT22;5013;51.840;8.276;2022-08-01T00:55:28;19.80;99.90
9949;DHT22;5013;51.840;8.276;2022-08-01T00:57:54;19.80;99.90
9949;DHT22;5013;51.840;8.276;2022-08-01T01:00:40;19.70;99.90
9949;DHT22;5013;51.840;8.276;2022-08-01T01:03:07;19.70;99.90
9949;DHT22;5013;51.840;8.276;2022-08-01T01:05:45;19.60;99.90
9949;DHT22;5013;51.840;8.276;2022-08-01T01:08:24;19.60;99.90
9949;DHT22;5013;51.840;8.276;2022-08-01T01:11:04;19.60;99.90
9949;DHT22;5013;51.840;8.276;2022-08-01T01:14:10;19.60;99.90
9949;DHT22;5013;51.840;8.276;2022-08-01T01:16:53;19.60;99.90
9949;DHT22;5013;51.840;8.276;2022-08-01T01:19:48;19.50;99.90
9949;DHT22;5013;51.840;8.276;2022-08-01T01:32:38;19.40;99.90
9949;DHT22;5013;51.840;8.276;2022-08-01T01:35:35;19.40;99.90
9949;DHT22;5013;51.840;8.276;2022-08-01T01:38:13;19.30;99.90
9949;DHT22;5013;51.840;8.276;2022-08-01T01:40:42;19.30;99.90
9949;DHT22;5013;51.840;8.276;2022-08-01T01:43:44;19.30;99.90
9949;DHT22;5013;51.840;8.276;2022-08-01T01:46:24;19.30;99.90
9949;DHT22;5013;51.840;8.276;2022-08-01T01:49:36;19.40;99.90
9949;DHT22;5013;51.840;8.276;2022-08-01T01:52:21;19.30;99.90
9949;DHT22;5013;51.840;8.276;2022-08-01T01:55:10;19.30;99.90
9949;DHT22;5013;51.840;8.276;2022-08-01T01:57:56;19.20;99.90
9949;DHT22;5013;51.840;8.276;2022-08-01T02:00:44;19.30;99.90
9949;DHT22;5013;51.840;8.276;2022-08-01T02:03:39;19.30;99.90
9949;DHT22;5013;51.840;8.276;2022-08-01T02:06:07;19.20;99.90
9949;DHT22;5013;51.840;8.276;2022-08-01T02:08:34;19.20;99.90
9949;DHT22;5013;51.840;8.276;2022-08-01T02:11:01;19.20;99.90
9949;DHT22;5013;51.840;8.276;2022-08-01T02:13:53;19.20;99.90
9949;DHT22;5013;51.840;8.276;2022-08-01T02:16:35;19.20;99.90
9949;DHT22;5013;51.840;8.276;2022-08-01T02:19:02;19.20;99.90
9949;DHT22;5013;51.840;8.276;2022-08-01T02:21:37;19.20;99.90
9949;DHT22;5013;51.840;8.276;2022-08-01T02:24:12;19.20;99.90
9949;DHT22;5013;51.840;8.276;2022-08-01T02:26:46;19.20;99.90
9949;DHT22;5013;51.840;8.276;2022-08-01T02:29:16;19.30;99.90
9949;DHT22;5013;51.840;8.276;2022-08-01T02:31:47;19.30;99.90
9949;DHT22;5013;51.840;8.276;2022-08-01T02:34:17;19.20;99.90
9949;DHT22;5013;51.840;8.276;2022-08-01T02:36:45;19.30;99.90
9949;DHT22;5013;51.840;8.276;2022-08-01T02:39:14;19.20;99.90
9949;DHT22;5013;51.840;8.276;2022-08-01T02:41:43;19.20;99.90
9949;DHT22;5013;51.840;8.276;2022-08-01T02:44:20;19.30;99.90
9949;DHT22;5013;51.840;8.276;2022-08-01T02:47:00;19.20;99.90
9949;DHT22;5013;51.840;8.276;2022-08-01T02:49:36;19.20;99.90
9949;DHT22;5013;51.840;8.276;2022-08-01T02:52:07;19.20;99.90
9949;DHT22;5013;51.840;8.276;2022-08-01T02:54:35;19.20;99.90
9949;DHT22;5013;51.840;8.276;2022-08-01T02:57:02;19.10;99.90
9949;DHT22;5013;51.840;8.276;2022-08-01T02:59:31;19.20;99.90
9949;DHT22;5013;51.840;8.276;2022-08-01T03:01:59;19.10;99.90
9949;DHT22;5013;51.840;8.276;2022-08-01T03:04:27;19.20;99.90
9949;DHT22;5013;51.840;8.276;2022-08-01T03:06:58;19.20;99.90
9949;DHT22;5013;51.840;8.276;2022-08-01T03:09:27;19.20;99.90
9949;DHT22;5013;51.840;8.276;2022-08-01T03:12:01;19.20;99.90
9949;DHT22;5013;51.840;8.276;2022-08-01T03:18:15;19.20;99.90
9949;DHT22;5013;51.840;8.276;2022-08-01T03:23:29;19.10;99.90
9949;DHT22;5013;51.840;8.276;2022-08-01T03:26:27;19.10;99.90
9949;DHT22;5013;51.840;8.276;2022-08-01T03:32:34;19.20;99.90
9949;DHT22;5013;51.840;8.276;2022-08-01T03:35:37;19.20;99.90
9949;DHT22;5013;51.840;8.276;2022-08-01T03:38:07;19.10;99.90
9949;DHT22;5013;51.840;8.276;2022-08-01T03:41:12;19.20;99.90
9949;DHT22;5013;51.840;8.276;2022-08-01T03:44:03;19.10;99.90
9949;DHT22;5013;51.840;8.276;2022-08-01T03:46:46;19.10;99.90
9949;DHT22;5013;51.840;8.276;2022-08-01T03:49:46;19.10;99.90
9949;DHT22;5013;51.840;8.276;2022-08-01T03:52:16;19.10;99.90
9949;DHT22;5013;51.840;8.276;2022-08-01T03:54:58;19.10;99.90
9949;DHT22;5013;51.840;8.276;2022-08-01T03:57:28;19.20;99.90
9949;DHT22;5013;51.840;8.276;2022-08-01T04:00:00;19.10;99.90
9949;DHT22;5013;51.840;8.276;2022-08-01T04:02:28;19.10;99.90
9949;DHT22;5013;51.840;8.276;2022-08-01T04:05:02;19.10;99.90
9949;DHT22;5013;51.840;8.276;2022-08-01T04:07:45;19.20;99.90
9949;DHT22;5013;51.840;8.276;2022-08-01T04:10:29;19.20;99.90
9949;DHT22;5013;51.840;8.276;2022-08-01T04:13:16;19.20;99.90
9949;DHT22;5013;51.840;8.276;2022-08-01T04:15:55;19.20;99.90
9949;DHT22;5013;51.840;8.276;2022-08-01T04:18:35;19.20;99.90
9949;DHT22;5013;51.840;8.276;2022-08-01T04:21:11;19.20;99.90
9949;DHT22;5013;51.840;8.276;2022-08-01T04:23:41;19.20;99.90
9949;DHT22;5013;51.840;8.276;2022-08-01T04:27:11;19.20;99.90
9949;DHT22;5013;51.840;8.276;2022-08-01T04:29:56;19.30;99.90
9949;DHT22;5013;51.840;8.276;2022-08-01T04:32:25;19.20;99.90
9949;DHT22;5013;51.840;8.276;2022-08-01T04:34:53;19.20;99.90
9949;DHT22;5013;51.840;8.276;2022-08-01T04:37:21;19.20;99.90
9949;DHT22;5013;51.840;8.276;2022-08-01T04:39:48;19.20;99.90
9949;DHT22;5013;51.840;8.276;2022-08-01T04:42:16;19.20;99.90
9949;DHT22;5013;51.840;8.276;2022-08-01T04:44:42;19.20;99.90
9949;DHT22;5013;51.840;8.276;2022-08-01T04:47:09;19.20;99.90
9949;DHT22;5013;51.840;8.276;2022-08-01T04:49:35;19.20;99.90
9949;DHT22;5013;51.840;8.276;2022-08-01T04:52:02;19.30;99.90
9949;DHT22;5013;51.840;8.276;2022-08-01T04:54:29;19.30;99.90
9949;DHT22;5013;51.840;8.276;2022-08-01T04:56:56;19.30;99.90
9949;DHT22;5013;51.840;8.276;2022-08-01T04:59:26;19.20;99.90
9949;DHT22;5013;51.840;8.276;2022-08-01T05:02:18;19.30;99.90
9949;DHT22;5013;51.840;8.276;2022-08-01T05:04:45;19.30;99.90
9949;DHT22;5013;51.840;8.276;2022-08-01T05:07:12;19.30;99.90
9949;DHT22;5013;51.840;8.276;2022-08-01T05:09:39;19.40;99.90
9949;DHT22;5013;51.840;8.276;2022-08-01T05:12:07;19.40;99.90
9949;DHT22;5013;51.840;8.276;2022-08-01T05:14:34;19.50;99.90
9949;DHT22;5013;51.840;8.276;2022-08-01T05:17:04;19.60;99.90
9949;DHT22;5013;51.840;8.276;2022-08-01T05:19:42;19.70;99.90
9949;DHT22;5013;51.840;8.276;2022-08-01T05:22:33;19.80;99.90
9949;DHT22;5013;51.840;8.276;2022-08-01T05:24:59;19.80;99.90
9949;DHT22;5013;51.840;8.276;2022-08-01T05:27:26;19.90;99.90
9949;DHT22;5013;51.840;8.276;2022-08-01T05:29:53;19.80;99.90
9949;DHT22;5013;51.840;8.276;2022-08-01T05:32:20;19.90;99.90
9949;DHT22;5013;51.840;8.276;2022-08-01T05:34:49;19.90;99.90
9949;DHT22;5013;51.840;8.276;2022-08-01T05:37:15;19.90;99.90
9949;DHT22;5013;51.840;8.276;2022-08-01T05:39:40;19.90;99.90
9949;DHT22;5013;51.840;8.276;2022-08-01T05:42:06;19.90;99.90
9949;DHT22;5013;51.840;8.276;2022-08-01T05:44:32;19.90;99.90
9949;DHT22;5013;51.840;8.276;2022-08-01T05:46:58;19.90;99.90
9949;DHT22;5013;51.840;8.276;2022-08-01T05:49:23;19.90;99.90
9949;DHT22;5013;51.840;8.276;2022-08-01T05:51:49;19.90;99.90
9949;DHT22;5013;51.840;8.276;2022-08-01T05:54:15;19.90;99.90
9949;DHT22;5013;51.840;8.276;2022-08-01T05:56:42;19.80;99.90
9949;DHT22;5013;51.840;8.276;2022-08-01T05:59:08;19.80;99.90
9949;DHT22;5013;51.840;8.276;2022-08-01T06:01:33;19.70;99.90
9949;DHT22;5013;51.840;8.276;2022-08-01T06:03:59;19.60;99.90
9949;DHT22;5013;51.840;8.276;2022-08-01T06:06:25;19.70;99.90
9949;DHT22;5013;51.840;8.276;2022-08-01T06:08:51;19.60;99.90
9949;DHT22;5013;51.840;8.276;2022-08-01T06:11:17;19.70;99.90
9949;DHT22;5013;51.840;8.276;2022-08-01T06:13:43;19.70;99.90
9949;DHT22;5013;51.840;8.276;2022-08-01T06:16:08;19.70;99.90
9949;DHT22;5013;51.840;8.276;2022-08-01T06:18:34;19.70;99.90
9949;DHT22;5013;51.840;8.276;2022-08-01T06:21:00;19.70;99.90
9949;DHT22;5013;51.840;8.276;2022-08-01T06:23:26;19.60;99.90
9949;DHT22;5013;51.840;8.276;2022-08-01T06:25:54;19.60;99.90
9949;DHT22;5013;51.840;8.276;2022-08-01T06:28:21;19.70;99.90
9949;DHT22;5013;51.840;8.276;2022-08-01T06:30:47;19.80;99.90
9949;DHT22;5013;51.840;8.276;2022-08-01T06:33:13;19.90;99.90
9949;DHT22;5013;51.840;8.276;2022-08-01T06:35:39;20.00;99.90
9949;DHT22;5013;51.840;8.276;2022-08-01T06:38:04;20.00;99.90
9949;DHT22;5013;51.840;8.276;2022-08-01T06:40:30;20.00;99.90
9949;DHT22;5013;51.840;8.276;2022-08-01T06:42:56;20.00;99.90
9949;DHT22;5013;51.840;8.276;2022-08-01T06:45:21;20.00;99.90
9949;DHT22;5013;51.840;8.276;2022-08-01T06:47:52;19.90;99.90
9949;DHT22;5013;51.840;8.276;2022-08-01T06:50:18;19.90;99.90
9949;DHT22;5013;51.840;8.276;2022-08-01T06:52:44;19.90;99.90
9949;DHT22;5013;51.840;8.276;2022-08-01T06:55:10;19.90;99.90
9949;DHT22;5013;51.840;8.276;2022-08-01T06:57:35;19.90;99.90
9949;DHT22;5013;51.840;8.276;2022-08-01T07:00:04;20.00;99.90
9949;DHT22;5013;51.840;8.276;2022-08-01T07:02:33;20.00;99.90
9949;DHT22;5013;51.840;8.276;2022-08-01T07:04:59;20.00;99.90
9949;DHT22;5013;51.840;8.276;2022-08-01T07:07:26;20.10;99.90
9949;DHT22;5013;51.840;8.276;2022-08-01T07:09:52;20.10;99.90
9949;DHT22;5013;51.840;8.276;2022-08-01T07:12:18;20.30;99.90
9949;DHT22;5013;51.840;8.276;2022-08-01T07:14:44;20.40;99.90
9949;DHT22;5013;51.840;8.276;2022-08-01T07:17:09;20.50;99.90
9949;DHT22;5013;51.840;8.276;2022-08-01T07:19:35;20.60;99.90
9949;DHT22;5013;51.840;8.276;2022-08-01T07:22:09;20.90;99.90
9949;DHT22;5013;51.840;8.276;2022-08-01T07:24:35;21.10;99.90
9949;DHT22;5013;51.840;8.276;2022-08-01T07:27:00;21.00;99.90
9949;DHT22;5013;51.840;8.276;2022-08-01T07:29:27;21.00;99.90
9949;DHT22;5013;51.840;8.276;2022-08-01T07:31:56;20.90;99.90
9949;DHT22;5013;51.840;8.276;2022-08-01T07:34:23;21.00;99.90
9949;DHT22;5013;51.840;8.276;2022-08-01T07:36:50;21.00;99.90
9949;DHT22;5013;51.840;8.276;2022-08-01T07:39:16;21.10;99.90
9949;DHT22;5013;51.840;8.276;2022-08-01T07:41:42;21.20;99.90
9949;DHT22;5013;51.840;8.276;2022-08-01T07:44:09;21.20;99.90
9949;DHT22;5013;51.840;8.276;2022-08-01T07:46:34;21.30;99.90
9949;DHT22;5013;51.840;8.276;2022-08-01T07:49:00;21.30;99.90
9949;DHT22;5013;51.840;8.276;2022-08-01T07:51:26;21.40;99.90
9949;DHT22;5013;51.840;8.276;2022-08-01T07:53:51;21.60;99.90
9949;DHT22;5013;51.840;8.276;2022-08-01T07:56:17;21.50;99.90
9949;DHT22;5013;51.840;8.276;2022-08-01T07:58:43;21.50;43.30
9949;DHT22;5013;51.840;8.276;2022-08-01T08:01:09;21.60;78.20
9949;DHT22;5013;51.840;8.276;2022-08-01T08:03:34;21.60;77.30
9949;DHT22;5013;51.840;8.276;2022-08-01T08:06:00;21.60;39.10
9949;DHT22;5013;51.840;8.276;2022-08-01T08:08:27;21.90;27.70
9949;DHT22;5013;51.840;8.276;2022-08-01T08:10:53;21.90;1.00
9949;DHT22;5013;51.840;8.276;2022-08-01T08:13:18;22.10;1.00
9949;DHT22;5013;51.840;8.276;2022-08-01T08:15:44;22.10;1.00
9949;DHT22;5013;51.840;8.276;2022-08-01T08:18:10;22.20;1.00
9949;DHT22;5013;51.840;8.276;2022-08-01T08:20:35;22.30;1.00
9949;DHT22;5013;51.840;8.276;2022-08-01T08:23:01;22.40;1.00
9949;DHT22;5013;51.840;8.276;2022-08-01T08:25:47;22.50;1.00
9949;DHT22;5013;51.840;8.276;2022-08-01T08:28:13;22.40;99.90
9949;DHT22;5013;51.840;8.276;2022-08-01T08:30:38;22.30;1.00
9949;DHT22;5013;51.840;8.276;2022-08-01T08:33:04;22.30;1.00
9949;DHT22;5013;51.840;8.276;2022-08-01T08:35:29;22.50;1.00
9949;DHT22;5013;51.840;8.276;2022-08-01T08:37:55;22.50;1.00
9949;DHT22;5013;51.840;8.276;2022-08-01T08:40:21;22.50;1.00
9949;DHT22;5013;51.840;8.276;2022-08-01T08:42:47;22.50;1.00
9949;DHT22;5013;51.840;8.276;2022-08-01T08:45:13;22.40;1.00
9949;DHT22;5013;51.840;8.276;2022-08-01T08:47:40;22.30;1.00
9949;DHT22;5013;51.840;8.276;2022-08-01T08:50:07;22.50;1.00
9949;DHT22;5013;51.840;8.276;2022-08-01T08:52:35;22.70;1.00
9949;DHT22;5013;51.840;8.276;2022-08-01T08:55:03;22.70;1.00
9949;DHT22;5013;51.840;8.276;2022-08-01T08:57:30;22.50;1.00
9949;DHT22;5013;51.840;8.276;2022-08-01T08:59:56;22.40;1.00
9949;DHT22;5013;51.840;8.276;2022-08-01T09:02:22;22.20;1.00
9949;DHT22;5013;51.840;8.276;2022-08-01T09:04:49;22.30;1.00
9949;DHT22;5013;51.840;8.276;2022-08-01T09:07:15;22.10;1.00
9949;DHT22;5013;51.840;8.276;2022-08-01T09:09:41;21.80;1.00
9949;DHT22;5013;51.840;8.276;2022-08-01T09:12:07;21.60;32.30
9949;DHT22;5013;51.840;8.276;2022-08-01T09:14:33;21.30;99.90
9949;DHT22;5013;51.840;8.276;2022-08-01T09:17:08;21.10;99.90
9949;DHT22;5013;51.840;8.276;2022-08-01T09:19:37;20.90;99.90
9949;DHT22;5013;51.840;8.276;2022-08-01T09:22:05;20.70;99.90
9949;DHT22;5013;51.840;8.276;2022-08-01T09:24:31;20.70;99.90
9949;DHT22;5013;51.840;8.276;2022-08-01T09:26:59;20.80;99.90
9949;DHT22;5013;51.840;8.276;2022-08-01T09:29:27;20.80;99.90
9949;DHT22;5013;51.840;8.276;2022-08-01T09:31:54;20.80;99.90
9949;DHT22;5013;51.840;8.276;2022-08-01T09:36:55;20.80;99.90
9949;DHT22;5013;51.840;8.276;2022-08-01T09:41:49;20.90;99.90
9949;DHT22;5013;51.840;8.276;2022-08-01T09:44:16;20.80;99.90
9949;DHT22;5013;51.840;8.276;2022-08-01T09:46:53;20.80;99.90
9949;DHT22;5013;51.840;8.276;2022-08-01T09:49:30;20.70;99.90
9949;DHT22;5013;51.840;8.276;2022-08-01T09:51:58;20.80;99.90
9949;DHT22;5013;51.840;8.276;2022-08-01T09:54:30;21.00;99.90
9949;DHT22;5013;51.840;8.276;2022-08-01T09:57:09;21.10;99.90
9949;DHT22;5013;51.840;8.276;2022-08-01T09:59:36;21.40;99.90
9949;DHT22;5013;51.840;8.276;2022-08-01T10:02:03;21.60;99.90
9949;DHT22;5013;51.840;8.276;2022-08-01T10:04:29;21.80;41.40
9949;DHT22;5013;51.840;8.276;2022-08-01T10:07:04;22.00;30.90
9949;DHT22;5013;51.840;8.276;2022-08-01T10:09:32;22.10;1.00
9949;DHT22;5013;51.840;8.276;2022-08-01T10:12:03;22.00;27.30
9949;DHT22;5013;51.840;8.276;2022-08-01T10:14:30;22.20;1.00
9949;DHT22;5013;51.840;8.276;2022-08-01T10:16:57;22.30;1.00
9949;DHT22;5013;51.840;8.276;2022-08-01T10:19:26;22.40;1.00
9949;DHT22;5013;51.840;8.276;2022-08-01T10:21:53;22.40;1.00
9949;DHT22;5013;51.840;8.276;2022-08-01T10:24:20;22.30;1.00
9949;DHT22;5013;51.840;8.276;2022-08-01T10:26:54;22.40;1.00
9949;DHT22;5013;51.840;8.276;2022-08-01T10:29:21;22.70;1.00
9949;DHT22;5013;51.840;8.276;2022-08-01T10:31:48;22.90;1.00
9949;DHT22;5013;51.840;8.276;2022-08-01T10:34:14;22.80;99.90
9949;DHT22;5013;51.840;8.276;2022-08-01T10:36:43;22.80;99.90
9949;DHT22;5013;51.840;8.276;2022-08-01T10:39:13;22.70;99.90
9949;DHT22;5013;51.840;8.276;2022-08-01T10:41:39;22.50;1.00
9949;DHT22;5013;51.840;8.276;2022-08-01T10:44:09;22.20;1.00
9949;DHT22;5013;51.840;8.276;2022-08-01T10:46:37;22.00;1.00
9949;DHT22;5013;51.840;8.276;2022-08-01T10:49:16;21.40;19.90
9949;DHT22;5013;51.840;8.276;2022-08-01T10:51:44;21.00;99.90
9949;DHT22;5013;51.840;8.276;2022-08-01T10:54:12;20.60;99.90
9949;DHT22;5013;51.840;8.276;2022-08-01T10:56:45;20.40;99.90
9949;DHT22;5013;51.840;8.276;2022-08-01T10:59:21;20.50;99.90
9949;DHT22;5013;51.840;8.276;2022-08-01T11:02:01;20.50;99.90
9949;DHT22;5013;51.840;8.276;2022-08-01T11:07:55;20.40;99.90
9949;DHT22;5013;51.840;8.276;2022-08-01T11:10:43;20.50;99.90
9949;DHT22;5013;51.840;8.276;2022-08-01T11:13:09;20.60;99.90
9949;DHT22;5013;51.840;8.276;2022-08-01T11:15:40;20.50;99.90
9949;DHT22;5013;51.840;8.276;2022-08-01T11:21:01;21.00;99.90
9949;DHT22;5013;51.840;8.276;2022-08-01T11:23:28;21.30;99.90
9949;DHT22;5013;51.840;8.276;2022-08-01T11:28:23;21.40;99.90
9949;DHT22;5013;51.840;8.276;2022-08-01T11:30:54;21.30;99.90
9949;DHT22;5013;51.840;8.276;2022-08-01T11:38:43;21.00;99.90
9949;DHT22;5013;51.840;8.276;2022-08-01T11:41:26;21.50;99.90
9949;DHT22;5013;51.840;8.276;2022-08-01T11:46:48;22.40;1.00
9949;DHT22;5013;51.840;8.276;2022-08-01T11:49:31;22.70;1.00
9949;DHT22;5013;51.840;8.276;2022-08-01T11:52:11;22.80;1.00
9949;DHT22;5013;51.840;8.276;2022-08-01T11:54:39;22.60;99.90
9949;DHT22;5013;51.840;8.276;2022-08-01T11:57:11;22.60;1.00
9949;DHT22;5013;51.840;8.276;2022-08-01T12:02:31;22.90;1.00
9949;DHT22;5013;51.840;8.276;2022-08-01T12:05:01;22.80;99.90
9949;DHT22;5013;51.840;8.276;2022-08-01T12:07:30;22.80;1.00
9949;DHT22;5013;51.840;8.276;2022-08-01T12:12:26;22.10;1.00
9949;DHT22;5013;51.840;8.276;2022-08-01T12:14:58;21.60;1.00
9949;DHT22;5013;51.840;8.276;2022-08-01T12:17:29;21.20;1.00
9949;DHT22;5013;51.840;8.276;2022-08-01T12:19:56;20.90;99.90
9949;DHT22;5013;51.840;8.276;2022-08-01T12:22:23;20.80;99.90
9949;DHT22;5013;51.840;8.276;2022-08-01T12:24:49;20.70;73.90
9949;DHT22;5013;51.840;8.276;2022-08-01T12:27:35;20.70;99.90
9949;DHT22;5013;51.840;8.276;2022-08-01T12:30:04;20.70;99.90
9949;DHT22;5013;51.840;8.276;2022-08-01T12:32:33;20.60;1.00
9949;DHT22;5013;51.840;8.276;2022-08-01T12:35:28;20.60;1.00
9949;DHT22;5013;51.840;8.276;2022-08-01T12:37:59;20.90;1.00
9949;DHT22;5013;51.840;8.276;2022-08-01T12:40:34;20.90;1.00
9949;DHT22;5013;51.840;8.276;2022-08-01T12:43:04;21.20;1.00
9949;DHT22;5013;51.840;8.276;2022-08-01T12:45:32;21.30;1.00
9949;DHT22;5013;51.840;8.276;2022-08-01T12:47:59;21.30;99.90
9949;DHT22;5013;51.840;8.276;2022-08-01T12:50:32;21.60;99.90
9949;DHT22;5013;51.840;8.276;2022-08-01T12:52:58;21.50;77.00
9949;DHT22;5013;51.840;8.276;2022-08-01T12:55:25;21.80;99.90
9949;DHT22;5013;51.840;8.276;2022-08-01T12:58:09;21.90;99.90
9949;DHT22;5013;51.840;8.276;2022-08-01T13:00:36;22.00;99.90
9949;DHT22;5013;51.840;8.276;2022-08-01T13:03:05;22.10;99.90
9949;DHT22;5013;51.840;8.276;2022-08-01T13:05:45;22.30;1.00
9949;DHT22;5013;51.840;8.276;2022-08-01T13:08:15;22.50;99.90
9949;DHT22;5013;51.840;8.276;2022-08-01T13:10:41;22.50;1.00
9949;DHT22;5013;51.840;8.276;2022-08-01T13:13:07;22.70;99.90
9949;DHT22;5013;51.840;8.276;2022-08-01T13:15:36;22.70;99.90
9949;DHT22;5013;51.840;8.276;2022-08-01T13:20:49;22.60;99.90
9949;DHT22;5013;51.840;8.276;2022-08-01T13:23:19;22.60;99.90
9949;DHT22;5013;51.840;8.276;2022-08-01T13:25:55;22.50;1.00
9949;DHT22;5013;51.840;8.276;2022-08-01T13:28:26;22.60;99.90
9949;DHT22;5013;51.840;8.276;2022-08-01T13:31:03;22.70;99.90
9949;DHT22;5013;51.840;8.276;2022-08-01T13:33:46;23.10;99.90
9949;DHT22;5013;51.840;8.276;2022-08-01T13:36:13;23.10;99.90
9949;DHT22;5013;51.840;8.276;2022-08-01T13:38:40;23.30;1.00
9949;DHT22;5013;51.840;8.276;2022-08-01T13:41:24;23.50;99.90
9949;DHT22;5013;51.840;8.276;2022-08-01T13:43:51;23.80;1.00
9949;DHT22;5013;51.840;8.276;2022-08-01T13:46:16;24.10;1.00
9949;DHT22;5013;51.840;8.276;2022-08-01T13:48:42;24.40;1.00
9949;DHT22;5013;51.840;8.276;2022-08-01T13:51:08;24.70;99.90
9949;DHT22;5013;51.840;8.276;2022-08-01T13:53:34;24.70;99.90
9949;DHT22;5013;51.840;8.276;2022-08-01T13:56:01;24.80;99.90
9949;DHT22;5013;51.840;8.276;2022-08-01T13:58:27;24.40;1.00
9949;DHT22;5013;51.840;8.276;2022-08-01T14:00:54;24.30;34.40
9949;DHT22;5013;51.840;8.276;2022-08-01T14:03:21;24.50;50.10
9949;DHT22;5013;51.840;8.276;2022-08-01T14:05:47;24.30;1.00
9949;DHT22;5013;51.840;8.276;2022-08-01T14:08:14;24.00;1.00
9949;DHT22;5013;51.840;8.276;2022-08-01T14:10:40;24.20;1.00
9949;DHT22;5013;51.840;8.276;2022-08-01T14:13:05;24.50;99.90
9949;DHT22;5013;51.840;8.276;2022-08-01T14:15:31;24.50;1.00
9949;DHT22;5013;51.840;8.276;2022-08-01T14:17:57;24.30;1.00
9949;DHT22;5013;51.840;8.276;2022-08-01T14:20:24;24.40;99.90
9949;DHT22;5013;51.840;8.276;2022-08-01T14:22:49;24.50;99.90
9949;DHT22;5013;51.840;8.276;2022-08-01T14:25:15;24.40;1.00
9949;DHT22;5013;51.840;8.276;2022-08-01T14:27:43;24.00;1.00
9949;DHT22;5013;51.840;8.276;2022-08-01T14:30:10;24.00;1.00
9949;DHT22;5013;51.840;8.276;2022-08-01T14:32:36;24.00;55.70
9949;DHT22;5013;51.840;8.276;2022-08-01T14:35:04;24.10;1.00
9949;DHT22;5013;51.840;8.276;2022-08-01T14:37:30;24.50;99.90
9949;DHT22;5013;51.840;8.276;2022-08-01T14:39:57;24.40;1.00
9949;DHT22;5013;51.840;8.276;2022-08-01T14:42:25;24.60;99.90
9949;DHT22;5013;51.840;8.276;2022-08-01T14:44:51;24.90;99.90
9949;DHT22;5013;51.840;8.276;2022-08-01T14:47:17;24.90;16.40
9949;DHT22;5013;51.840;8.276;2022-08-01T14:49:42;25.00;1.00
9949;DHT22;5013;51.840;8.276;2022-08-01T14:52:09;25.20;41.50
9949;DHT22;5013;51.840;8.276;2022-08-01T14:54:36;24.90;10.80
9949;DHT22;5013;51.840;8.276;2022-08-01T14:57:01;24.60;28.50
9949;DHT22;5013;51.840;8.276;2022-08-01T14:59:27;24.50;99.90
9949;DHT22;5013;51.840;8.276;2022-08-01T15:01:53;24.50;99.90
9949;DHT22;5013;51.840;8.276;2022-08-01T15:04:18;24.30;99.90
9949;DHT22;5013;51.840;8.276;2022-08-01T15:06:44;24.20;99.90
9949;DHT22;5013;51.840;8.276;2022-08-01T15:09:10;24.10;1.00
9949;DHT22;5013;51.840;8.276;2022-08-01T15:11:36;24.10;99.90
9949;DHT22;5013;51.840;8.276;2022-08-01T15:14:03;24.00;1.00
9949;DHT22;5013;51.840;8.276;2022-08-01T15:16:52;23.90;1.00
9949;DHT22;5013;51.840;8.276;2022-08-01T15:19:17;23.80;99.90
9949;DHT22;5013;51.840;8.276;2022-08-01T15:21:43;23.70;1.00
9949;DHT22;5013;51.840;8.276;2022-08-01T15:24:09;23.90;1.00
9949;DHT22;5013;51.840;8.276;2022-08-01T15:26:35;24.00;1.00
9949;DHT22;5013;51.840;8.276;2022-08-01T15:29:01;24.10;1.00
9949;DHT22;5013;51.840;8.276;2022-08-01T15:31:26;24.30;1.00
9949;DHT22;5013;51.840;8.276;2022-08-01T15:33:52;24.30;99.90
9949;DHT22;5013;51.840;8.276;2022-08-01T15:36:18;24.20;99.90
9949;DHT22;5013;51.840;8.276;2022-08-01T15:38:43;24.20;1.00
9949;DHT22;5013;51.840;8.276;2022-08-01T15:41:09;24.40;1.00
9949;DHT22;5013;51.840;8.276;2022-08-01T15:43:35;24.40;1.00
9949;DHT22;5013;51.840;8.276;2022-08-01T15:46:00;24.30;1.00
9949;DHT22;5013;51.840;8.276;2022-08-01T15:48:27;24.10;1.00
9949;DHT22;5013;51.840;8.276;2022-08-01T15:50:52;24.10;99.90
9949;DHT22;5013;51.840;8.276;2022-08-01T15:53:18;24.10;1.00
9949;DHT22;5013;51.840;8.276;2022-08-01T15:55:44;24.00;99.90
9949;DHT22;5013;51.840;8.276;2022-08-01T15:58:10;24.10;99.90
9949;DHT22;5013;51.840;8.276;2022-08-01T16:00:37;23.90;1.00
9949;DHT22;5013;51.840;8.276;2022-08-01T16:03:02;23.90;1.00
9949;DHT22;5013;51.840;8.276;2022-08-01T16:05:28;24.00;1.00
9949;DHT22;5013;51.840;8.276;2022-08-01T16:07:54;24.00;1.00
9949;DHT22;5013;51.840;8.276;2022-08-01T16:10:19;23.90;1.00
9949;DHT22;5013;51.840;8.276;2022-08-01T16:12:45;23.90;1.00
9949;DHT22;5013;51.840;8.276;2022-08-01T16:15:11;23.80;1.00
9949;DHT22;5013;51.840;8.276;2022-08-01T16:17:37;23.90;1.00
9949;DHT22;5013;51.840;8.276;2022-08-01T16:20:04;23.90;1.00
9949;DHT22;5013;51.840;8.276;2022-08-01T16:22:31;23.90;99.90
9949;DHT22;5013;51.840;8.276;2022-08-01T16:24:58;23.90;99.90
9949;DHT22;5013;51.840;8.276;2022-08-01T16:27:24;23.70;1.00
9949;DHT22;5013;51.840;8.276;2022-08-01T16:29:50;23.70;1.00
9949;DHT22;5013;51.840;8.276;2022-08-01T16:32:16;23.80;99.90
9949;DHT22;5013;51.840;8.276;2022-08-01T16:34:43;23.90;99.90
9949;DHT22;5013;51.840;8.276;2022-08-01T16:37:12;24.00;99.90
9949;DHT22;5013;51.840;8.276;2022-08-01T16:39:38;24.10;99.90
9949;DHT22;5013;51.840;8.276;2022-08-01T16:42:04;24.00;99.90
9949;DHT22;5013;51.840;8.276;2022-08-01T16:44:35;24.00;99.90
9949;DHT22;5013;51.840;8.276;2022-08-01T16:47:05;24.10;99.90
9949;DHT22;5013;51.840;8.276;2022-08-01T16:49:36;24.10;99.90
9949;DHT22;5013;51.840;8.276;2022-08-01T16:52:02;23.80;99.90
9949;DHT22;5013;51.840;8.276;2022-08-01T16:54:29;23.80;99.90
9949;DHT22;5013;51.840;8.276;2022-08-01T16:56:55;23.80;99.90
9949;DHT22;5013;51.840;8.276;2022-08-01T16:59:25;23.80;99.90
9949;DHT22;5013;51.840;8.276;2022-08-01T17:01:51;23.50;1.00
9949;DHT22;5013;51.840;8.276;2022-08-01T17:04:24;23.30;99.90
9949;DHT22;5013;51.840;8.276;2022-08-01T17:07:05;23.30;1.00
9949;DHT22;5013;51.840;8.276;2022-08-01T17:09:31;23.40;99.90
9949;DHT22;5013;51.840;8.276;2022-08-01T17:12:01;23.50;99.90
9949;DHT22;5013;51.840;8.276;2022-08-01T17:14:35;23.50;1.00